Kalamazoo METAR

KAZO 081553Z 33012G18KT 10SM FEW046 10/M03 A3014 RMK AO2 SLP212 T01001028

Kalamazoo TAF

TAF KAZO 081140Z 0812/0912 32005KT P6SM FEW080 FM090900 VRB04KT P6SM -RA OVC030